Latest Weather Observations for Solomon Airport

IDW60801

Issued at 10:14 pm WST Saturday 23 January 2021 (issued every 10 minutes, with the page automatically refreshed every 10 minutes)

About weather observations | Map of weather stations | Latest weather observations for WA | Other Formats
Station Details ID: 505060 Name: SOLOMON AIRPORT Lat: -22.25 Lon: 117.85 Height: 611.47 m
Data from the previous 72 hours. | See also: Recent months for locations in Western Australia
Date/Time
WST
Temp
°C
App
Temp
°C
Dew
Point
°C
Rel
Hum
%
Delta-T
°C
Wind Press
QNH
hPa
Press
MSL
hPa
Rain since
9am
mm
Dir  Spd
km/h
Gust
km/h
Spd
kts
Gust
kts
23/10:00pm 29.9 26.9 9.4 28 11.8 W 15 20 8 11 1008.3 1002.6 0.0
23/09:30pm 30.2 27.2 9.1 27 12.1 W 15 20 8 11 1008.2 1002.5 0.0
23/09:00pm 30.6 27.4 8.3 25 12.7 WSW 15 19 8 10 1007.9 1002.2 0.0
23/08:30pm 31.5 27.8 7.9 23 13.3 WSW 17 22 9 12 1007.6 1001.8 0.0
23/08:00pm 32.4 28.2 7.3 21 14.2 WSW 19 24 10 13 1007.2 1001.4 0.0
23/07:30pm 33.4 28.4 6.6 19 15.0 WSW 22 28 12 15 1006.8 1001.1 0.0
23/07:00pm 34.3 29.3 6.6 18 15.6 WSW 22 32 12 17 1006.4 1000.7 0.0
23/06:30pm 35.4 29.7 4.8 15 16.8 SW 24 35 13 19 1006.1 1000.3 0.0
23/06:00pm 36.2 30.8 4.5 14 17.4 WSW 22 35 12 19 1005.8 1000.0 0.0
23/05:30pm 36.8 30.3 4.9 14 17.7 SW 28 39 15 21 1005.5 999.7 0.0
23/05:00pm 37.4 31.0 5.4 14 18.0 SW 28 39 15 21 1005.1 999.4 0.0
23/04:30pm 37.0 30.6 5.1 14 17.7 SW 28 41 15 22 1004.9 999.2 0.0
23/04:00pm 37.5 30.2 5.5 14 18.0 SW 33 48 18 26 1004.8 999.0 0.0
23/03:30pm 37.6 30.1 4.5 13 18.3 SW 33 50 18 27 1004.9 999.2 0.0
23/03:00pm 37.8 30.3 4.7 13 18.4 SW 33 54 18 29 1004.9 999.2 0.0
23/02:51pm 37.6 31.3 5.6 14 18.0 SW 28 50 15 27 1004.8 999.0 0.0
23/02:30pm 37.7 30.6 5.6 14 18.0 SW 32 46 17 25 1004.8 999.0 0.0
23/02:00pm 37.3 31.5 6.3 15 17.6 SW 26 44 14 24 1005.0 999.3 0.0
23/01:30pm 36.4 31.1 8.3 18 16.3 WSW 26 43 14 23 1005.1 999.4 0.0
23/01:03pm 36.5 31.0 9.2 19 16.1 SW 28 46 15 25 1005.6 999.8 0.0
23/01:00pm 36.7 30.9 9.3 19 16.2 SW 30 46 16 25 1005.5 999.7 0.0
23/12:54pm 36.8 31.4 9.4 19 16.2 SW 28 46 15 25 1005.5 999.7 0.0
23/12:30pm 35.9 30.9 9.4 20 15.6 SW 26 43 14 23 1005.7 999.9 0.0
23/12:00pm 34.8 31.6 11.2 24 14.3 SW 19 33 10 18 1006.2 1000.4 0.0
23/11:30am 34.4 31.1 12.7 27 13.4 SW 22 33 12 18 1006.6 1000.9 0.0
23/11:00am 33.2 30.5 12.8 29 12.6 SW 19 33 10 18 1006.9 1001.2 0.0
23/10:30am 31.6 31.9 15.1 36 10.4 SW 7 22 4 12 1007.2 1001.4 0.0
23/10:00am 30.9 30.7 15.7 39 9.7 WSW 11 20 6 11 1007.3 1001.5 0.0
23/09:30am 29.7 29.8 15.4 42 9.0 WSW 9 15 5 8 1007.3 1001.5 0.0
23/09:00am 28.7 28.3 15.2 43 8.5 SW 11 15 6 8 1007.2 1001.4 6.4
23/08:30am 28.3 28.2 14.9 44 8.3 WSW 9 15 5 8 1007.2 1001.4 6.4
23/08:00am 27.7 28.3 16.9 51 6.9 WSW 9 17 5 9 1007.1 1001.3 6.4
23/07:30am 26.1 27.6 19.7 68 4.2 NNW 11 19 6 10 1006.9 1001.2 6.4
23/07:00am 24.8 26.0 19.8 74 3.3 NNW 13 17 7 9 1006.5 1000.8 6.0
23/06:30am 23.7 26.1 19.6 78 2.7 NNW 6 9 3 5 1006.2 1000.4 6.0
23/06:00am 22.1 24.0 18.5 80 2.3 ESE 6 7 3 4 1006.0 1000.2 6.0
23/05:30am 22.7 25.1 18.7 78 2.6 E 4 6 2 3 1005.5 999.7 6.0
23/05:00am 23.1 25.1 18.8 77 2.8 ENE 6 7 3 4 1004.9 999.2 6.0
23/04:30am 23.3 24.6 18.4 74 3.2 ENE 9 13 5 7 1004.7 998.9 6.0
23/04:00am 23.7 25.8 19.0 75 3.1 NNE 6 9 3 5 1004.5 998.7 6.0
23/03:30am 24.1 26.3 19.2 74 3.2 NW 6 7 3 4 1004.5 998.7 6.0
23/03:00am 23.9 26.3 19.6 77 2.8 NW 6 7 3 4 1004.6 998.8 6.0
23/02:30am 24.0 26.4 19.7 77 2.8 NNW 6 7 3 4 1004.9 999.2 6.0
23/02:00am 24.4 27.1 18.6 70 3.8 SE 2 4 1 2 1005.3 999.5 6.0
23/01:30am 24.9 26.7 18.4 67 4.2 NE 6 9 3 5 1005.3 999.5 6.0
23/01:00am 25.7 26.2 18.4 64 4.8 ENE 13 17 7 9 1005.7 999.9 6.0
23/12:30am 25.7 27.0 18.4 64 4.7 NNE 9 13 5 7 1006.2 1000.4 6.0
23/12:00am 26.2 27.7 18.1 61 5.3 NNE 7 9 4 5 1006.7 1001.0 6.0
 
Date/Time
WST
Temp
°C
App
Temp
°C
Dew
Point
°C
Rel
Hum
%
Delta-T
°C
Wind Press
QNH
hPa
Press
MSL
hPa
Rain since
9am
mm
Dir  Spd
km/h
Gust
km/h
Spd
kts
Gust
kts
22/11:30pm 26.3 27.7 17.9 60 5.4 NNE 7 11 4 6 1007.3 1001.5 6.0
22/11:00pm 26.6 26.5 17.9 59 5.6 NE 15 20 8 11 1007.4 1001.6 6.0
22/10:30pm 27.0 25.9 17.8 57 6.0 NE 20 30 11 16 1007.3 1001.5 6.0
22/10:00pm 27.3 26.5 18.0 56 6.1 NNE 19 26 10 14 1007.5 1001.7 6.0
22/09:30pm 28.4 27.1 16.7 49 7.5 NE 19 28 10 15 1007.3 1001.5 6.0
22/09:00pm 29.1 27.5 16.6 46 8.0 ENE 20 28 11 15 1006.9 1001.2 6.0
22/08:30pm 29.9 27.8 16.3 43 8.7 NE 22 37 12 20 1006.1 1000.3 6.0
22/08:00pm 30.3 29.6 16.3 42 9.0 NNE 15 24 8 13 1005.9 1000.1 6.0
22/07:30pm 30.4 30.4 17.1 44 8.6 N 13 19 7 10 1005.5 999.7 6.0
22/07:00pm 30.5 31.2 17.9 47 8.3 NNE 11 15 6 8 1005.0 999.3 6.0
22/06:30pm 30.9 30.1 17.2 43 8.9 ENE 17 24 9 13 1004.5 998.7 6.0
22/06:00pm 31.1 30.4 17.4 44 9.0 ENE 17 22 9 12 1004.2 998.4 6.0
22/05:30pm 31.0 31.8 19.0 48 8.0 NE 13 19 7 10 1004.3 998.5 6.0
22/05:00pm 29.7 31.7 19.1 53 7.1 WNW 7 11 4 6 1004.3 998.5 6.0
22/04:30pm 29.0 31.3 20.7 61 5.6 WNW 9 15 5 8 1004.7 998.9 6.0
22/04:00pm 27.7 28.3 19.5 61 5.5 NNW 15 26 8 14 1004.4 998.6 6.0
22/03:42pm 27.0 26.7 19.1 62 5.2 NNE 19 28 10 15 1004.8 999.0 6.0
22/03:30pm 27.4 24.9 17.0 53 6.7 ESE 26 56 14 30 1005.0 999.3 5.4
22/03:26pm 26.8 22.8 15.2 49 7.2 S 30 56 16 30 1005.5 999.7 5.0
22/03:24pm 25.6 22.6 17.8 62 5.0 S 30 56 16 30 1006.0 1000.2 4.2
22/03:19pm 30.2 29.9 18.3 49 7.8 WSW 17 50 9 27 1005.3 999.5 3.2
22/03:08pm 32.7 33.9 16.9 38 10.3 NE 6 9 3 5 1004.9 999.2 1.0
22/03:00pm 33.6 34.5 16.0 34 11.4 ENE 6 9 3 5 1004.8 999.0 0.2
22/02:30pm 34.8 34.4 14.1 28 13.0 SSW 9 22 5 12 1005.0 999.3 0.0
22/02:00pm 34.4 33.3 14.3 30 12.7 S 13 24 7 13 1005.5 999.7 0.0
22/01:30pm 34.9 33.9 14.7 29 12.8 SW 13 20 7 11 1006.0 1000.2 0.0
22/01:00pm 33.8 34.2 15.3 33 11.8 NE 7 15 4 8 1006.6 1000.9 0.0
22/12:30pm 34.0 34.1 15.5 33 11.8 E 9 20 5 11 1007.2 1001.4 0.0
22/12:00pm 33.7 33.7 15.2 33 11.8 ENE 9 24 5 13 1007.9 1002.2 0.0
22/11:30am 32.7 32.5 14.8 34 11.3 E 9 20 5 11 1008.6 1002.9 0.0
22/11:00am 32.4 32.5 15.4 36 10.8 SE 9 17 5 9 1008.9 1003.1 0.0
22/10:30am 31.8 32.2 15.3 37 10.5 SE 7 15 4 8 1009.1 1003.3 0.0
22/10:00am 30.7 31.1 16.3 42 9.2 ESE 9 24 5 13 1009.5 1003.8 0.0
22/09:30am 29.7 30.3 15.8 43 8.8 ENE 7 15 4 8 1009.7 1004.0 0.0
22/09:00am 28.8 30.6 18.3 53 6.9 E 6 9 3 5 1009.9 1004.2 1.0
22/08:30am 28.1 30.6 18.2 55 6.5 ESE 2 9 1 5 1010.0 1004.3 1.0
22/08:00am 27.4 29.1 18.1 57 6.1 E 6 9 3 5 1010.3 1004.6 1.0
22/07:30am 26.5 27.7 19.1 64 4.9 NE 11 15 6 8 1010.2 1004.5 1.0
22/07:00am 25.9 28.5 18.3 63 4.9 NW 2 6 1 3 1009.8 1004.1 1.0
22/06:30am 24.7 27.1 20.0 75 3.1 ENE 7 11 4 6 1009.8 1004.1 1.0
22/06:00am 24.4 26.7 19.9 76 3.0 E 7 9 4 5 1009.6 1003.9 1.0
22/05:30am 24.6 25.9 19.4 73 3.4 NE 11 17 6 9 1009.4 1003.7 1.0
22/05:00am 24.7 26.8 20.2 76 3.0 NE 9 15 5 8 1009.1 1003.3 1.0
22/04:30am 25.6 27.5 19.7 70 3.9 ENE 9 13 5 7 1008.6 1002.9 1.0
22/04:00am 26.0 28.6 18.4 63 5.0 N 2 4 1 2 1008.1 1002.4 1.0
22/03:30am 25.2 27.3 20.2 74 3.3 ENE 9 13 5 7 1007.9 1002.2 1.0
22/03:00am 24.6 27.7 20.3 77 2.9 ENE 4 6 2 3 1007.8 1002.0 1.0
22/02:30am 24.5 27.7 20.6 79 2.6 ESE 4 6 2 3 1008.0 1002.3 1.0
22/02:00am 24.9 27.5 20.4 76 3.0 E 7 9 4 5 1008.2 1002.5 1.0
22/01:30am 25.7 28.1 19.6 69 4.0 ENE 6 7 3 4 1008.3 1002.6 1.0
22/01:00am 25.9 27.0 18.8 65 4.7 N 11 15 6 8 1008.9 1003.1 1.0
22/12:30am 25.8 27.5 19.4 67 4.2 NW 9 13 5 7 1009.1 1003.3 1.0
22/12:00am 26.0 27.3 18.4 63 5.0 NW 9 13 5 7 1009.2 1003.4 1.0
 
Date/Time
WST
Temp
°C
App
Temp
°C
Dew
Point
°C
Rel
Hum
%
Delta-T
°C
Wind Press
QNH
hPa
Press
MSL
hPa
Rain since
9am
mm
Dir  Spd
km/h
Gust
km/h
Spd
kts
Gust
kts
21/11:30pm 25.3 27.6 17.7 62 4.9 WNW 2 6 1 3 1010.0 1004.3 1.0
21/11:00pm 24.5 24.4 19.6 74 3.2 E 19 22 10 12 1010.5 1004.7 1.0
21/10:30pm 23.9 24.7 19.8 78 2.7 ESE 15 22 8 12 1010.1 1004.4 1.0
21/10:00pm 26.0 27.6 19.2 66 4.5 NE 9 15 5 8 1010.1 1004.4 1.0
21/09:30pm 25.7 27.3 19.1 67 4.3 NE 9 19 5 10 1010.3 1004.6 0.8
21/09:00pm 26.1 25.9 17.7 60 5.4 WNW 15 20 8 11 1009.9 1004.2 0.4
21/08:30pm 27.1 24.6 15.1 47 7.5 NE 22 39 12 21 1010.1 1004.4 0.0
21/08:25pm 27.2 23.7 15.6 49 7.3 ENE 28 39 15 21 1010.1 1004.4 0.0
21/08:15pm 29.0 25.9 14.4 41 9.0 NE 24 35 13 19 1009.8 1004.1 0.0
21/08:05pm 27.7 24.3 15.7 48 7.5 ENE 28 39 15 21 1009.8 1004.1 0.0
21/08:00pm 27.4 24.0 15.7 48 7.4 ENE 28 39 15 21 1009.9 1004.2 0.0
21/07:55pm 26.7 22.5 15.7 51 6.9 ENE 32 43 17 23 1009.8 1004.1 0.0
21/07:53pm 26.1 21.9 15.8 53 6.4 ENE 32 44 17 24 1009.8 1004.1 0.0
21/07:36pm 29.3 28.0 16.8 47 8.0 NNE 19 41 10 22 1009.7 1004.0 0.0
21/07:33pm 29.6 28.7 17.8 49 7.7 N 19 26 10 14 1009.3 1003.5 0.0
21/07:30pm 29.8 29.2 17.6 48 7.9 NNW 17 26 9 14 1009.1 1003.3 0.0
21/07:27pm 30.0 29.8 17.5 47 8.1 NW 15 26 8 14 1008.9 1003.1 0.0
21/07:06pm 31.0 30.4 14.6 37 10.3 NW 11 17 6 9 1009.3 1003.5 0.0
21/07:04pm 31.0 30.8 14.6 37 10.3 NW 9 17 5 9 1009.2 1003.4 0.0
21/07:00pm 30.9 30.6 14.5 37 10.3 W 9 17 5 9 1008.8 1003.0 0.0
21/06:38pm 31.7 29.9 14.4 35 10.8 WSW 17 28 9 15 1008.0 1002.3 0.0
21/06:30pm 31.9 29.6 14.1 34 11.1 WSW 19 26 10 14 1007.8 1002.0 0.0
21/06:00pm 32.8 30.1 13.4 30 12.0 WSW 20 26 11 14 1006.6 1000.9 0.0
21/05:30pm 32.9 29.8 14.5 33 11.6 WSW 24 30 13 16 1006.2 1000.4 0.0
21/05:00pm 33.8 29.1 13.3 29 12.7 WSW 30 39 16 21 1006.6 1000.9 0.0
21/04:30pm 36.2 34.5 12.4 24 14.7 NNW 13 28 7 15 1006.3 1000.5 0.0
21/04:00pm 38.5 36.5 10.0 18 17.2 N 11 24 6 13 1006.1 1000.3 0.0
21/03:30pm 38.5 35.2 10.8 19 16.8 NE 19 26 10 14 1006.4 1000.7 0.0
21/03:00pm 38.4 37.8 12.2 21 16.3 NE 7 19 4 10 1006.8 1001.1 0.0
21/02:30pm 38.0 36.2 13.3 23 15.5 ENE 15 26 8 14 1007.4 1001.6 0.0
21/02:00pm 38.0 35.8 13.3 23 15.6 NE 17 28 9 15 1007.9 1002.2 0.0
21/01:30pm 38.1 35.7 12.7 22 15.8 NE 17 33 9 18 1008.1 1002.4 0.0
21/01:00pm 38.5 35.7 10.0 18 17.2 NNE 15 28 8 15 1008.5 1002.8 0.0
21/12:30pm 37.6 35.4 10.8 20 16.2 NE 13 26 7 14 1008.9 1003.1 0.0
21/12:00pm 37.9 35.8 11.1 20 16.4 NNE 13 22 7 12 1009.2 1003.4 0.0
21/11:30am 37.9 35.6 11.8 21 16.1 N 15 24 8 13 1009.7 1004.0 0.0
21/11:00am 37.3 35.5 13.3 23 15.1 NE 15 24 8 13 1010.2 1004.5 0.0
21/10:30am 36.1 33.8 13.0 25 14.4 ENE 17 24 9 13 1010.7 1004.9 0.0
21/10:00am 35.6 33.7 13.1 25 14.0 NE 15 28 8 15 1010.9 1005.1 0.0
21/09:30am 34.6 32.6 14.0 29 12.9 NE 17 26 9 14 1011.0 1005.3 0.0
21/09:00am 33.4 31.3 13.5 30 12.4 NNE 17 22 9 12 1011.1 1005.4 0.0
21/08:30am 33.3 32.3 12.3 28 12.8 ENE 9 19 5 10 1010.9 1005.1 0.0
21/08:00am 32.6 32.1 12.8 30 12.1 N 7 17 4 9 1010.9 1005.1 0.0
21/07:30am 30.2 30.9 13.5 36 10.2 WNW 2 4 1 2 1010.8 1005.0 0.0
21/07:00am 28.6 29.4 13.7 40 9.1 WSW 2 4 1 2 1010.9 1005.1 0.0
21/06:30am 27.6 27.8 14.3 44 8.2 WSW 6 7 3 4 1010.6 1004.8 0.0
21/06:22am 27.8 28.0 14.1 43 8.4 WSW 6 7 3 4 1010.5 1004.7 0.0
21/06:08am 27.5 27.5 14.2 44 8.2 W 7 7 4 4 1010.2 1004.5 0.0
21/06:00am 27.0 27.1 14.4 46 7.8 W 7 9 4 5 1010.1 1004.4 0.0
21/05:51am 26.9 27.2 14.6 46 7.6 W 6 7 3 4 1010.1 1004.4 0.0
21/05:39am 27.2 27.8 14.2 44 8.0 WNW 4 6 2 3 1010.0 1004.3 0.0
21/05:30am 27.5 28.2 14.5 45 8.0 NW 4 6 2 3 1009.9 1004.2 0.0
21/05:00am 27.4 27.9 14.1 44 8.2 ENE 4 9 2 5 1009.7 1004.0 0.0
21/04:30am 26.6 27.4 14.7 48 7.3 WNW 4 6 2 3 1009.4 1003.7 0.0
21/04:00am 26.4 26.6 14.8 49 7.2 WNW 7 9 4 5 1009.5 1003.8 0.0
21/03:30am 26.6 27.0 14.7 48 7.3 WSW 6 7 3 4 1009.6 1003.9 0.0
21/03:00am 26.7 27.2 15.1 49 7.2 W 6 9 3 5 1009.8 1004.1 0.0
21/02:30am 26.6 27.2 15.3 50 7.0 WSW 6 9 3 5 1010.0 1004.3 0.0
21/02:00am 26.7 26.4 15.4 50 7.1 WSW 11 17 6 9 1010.0 1004.3 0.0
21/01:30am 27.1 27.2 15.5 49 7.3 WSW 9 11 5 6 1010.2 1004.5 0.0
21/01:00am 27.8 27.3 14.8 45 8.1 WSW 11 15 6 8 1010.3 1004.6 0.0
21/12:30am 28.8 28.6 14.6 42 8.8 WSW 9 13 5 7 1010.7 1004.9 0.0
21/12:00am 29.3 29.1 14.7 41 9.1 W 9 13 5 7 1011.1 1005.4 0.0
 
Date/Time
WST
Temp
°C
App
Temp
°C
Dew
Point
°C
Rel
Hum
%
Delta-T
°C
Wind Press
QNH
hPa
Press
MSL
hPa
Rain since
9am
mm
Dir  Spd
km/h
Gust
km/h
Spd
kts
Gust
kts
20/11:30pm 29.6 29.0 14.6 40 9.3 W 11 15 6 8 1011.4 1005.7 0.0
20/11:00pm 30.2 29.2 14.7 39 9.7 WSW 13 19 7 10 1011.8 1006.1 0.0
20/10:30pm 30.2 30.3 15.5 41 9.3 WNW 9 13 5 7 1011.8 1006.1 0.0

Other formats

Comma delimited format used in spreadsheet applications
http://www.bom.gov.au/fwo/IDW60801/IDW60801.99217.axf

JavaScript Object Notation format (JSON) in row-major order
http://www.bom.gov.au/fwo/IDW60801/IDW60801.99217.json

Data quality

Most of these data are generated automatically and are frequently updated. Quality checks on data are not normally performed. It is possible for incorrect values to appear. Refer to information at About Latest Weather Observations and please check the disclaimer before using these data.